createdAt,value
2019-01-25T00:00:02.920Z,4.90
2019-01-25T00:02:31.190Z,5.10
2019-01-25T00:04:59.464Z,5.30
2019-01-25T00:07:27.795Z,4.80
2019-01-25T00:09:58.756Z,6.43
2019-01-25T00:12:26.054Z,6.67
2019-01-25T00:14:54.359Z,5.13
2019-01-25T00:17:22.626Z,6.27
2019-01-25T00:19:50.901Z,4.93
2019-01-25T00:22:19.201Z,5.17
2019-01-25T00:24:47.484Z,6.43
2019-01-25T00:27:15.829Z,7.10
2019-01-25T00:29:44.139Z,6.37
2019-01-25T00:32:12.409Z,4.73
2019-01-25T00:34:40.680Z,5.40
2019-01-25T00:37:08.991Z,6.23
2019-01-25T00:39:37.255Z,6.53
2019-01-25T00:42:05.532Z,6.70
2019-01-25T00:44:33.838Z,7.03
2019-01-25T00:47:02.123Z,7.60
2019-01-25T00:49:30.566Z,7.70
2019-01-25T00:51:58.871Z,8.57
2019-01-25T00:54:27.149Z,7.93
2019-01-25T00:56:55.424Z,7.60
2019-01-25T00:59:23.743Z,7.53
2019-01-25T01:01:52.019Z,7.33
2019-01-25T01:04:20.296Z,6.97
2019-01-25T01:06:48.678Z,8.00
2019-01-25T01:09:16.951Z,7.63
2019-01-25T01:11:45.230Z,8.20
2019-01-25T01:14:13.561Z,8.73
2019-01-25T01:16:41.824Z,8.40
2019-01-25T01:19:10.103Z,8.37
2019-01-25T01:21:38.413Z,7.40
2019-01-25T01:24:06.755Z,7.30
2019-01-25T01:26:35.023Z,7.43
2019-01-25T01:29:03.371Z,7.10
2019-01-25T01:31:31.616Z,7.93
2019-01-25T01:33:59.878Z,6.50
2019-01-25T01:36:28.184Z,6.30
2019-01-25T01:38:56.458Z,7.83
2019-01-25T01:41:24.728Z,8.67
2019-01-25T01:43:53.070Z,8.13
2019-01-25T01:46:21.416Z,9.17
2019-01-25T01:48:49.700Z,7.93
2019-01-25T01:51:18.014Z,8.87
2019-01-25T01:53:46.273Z,8.77
2019-01-25T01:56:14.553Z,8.77
2019-01-25T01:58:42.894Z,8.77
2019-01-25T02:01:11.166Z,10.03
2019-01-25T02:03:39.444Z,10.40
2019-01-25T02:06:07.890Z,8.47
2019-01-25T02:08:36.173Z,10.03
2019-01-25T02:11:04.576Z,9.60
2019-01-25T02:13:32.885Z,9.23
2019-01-25T02:16:01.159Z,9.33
2019-01-25T02:18:29.426Z,8.97
2019-01-25T02:20:57.808Z,8.97
2019-01-25T02:23:26.079Z,8.07
2019-01-25T02:25:54.348Z,6.90
2019-01-25T02:28:22.922Z,9.97
2019-01-25T02:30:51.195Z,8.13
2019-01-25T02:33:19.472Z,7.90
2019-01-25T02:35:47.781Z,7.67
2019-01-25T02:38:16.070Z,10.43
2019-01-25T02:40:44.342Z,8.23
2019-01-25T02:43:12.652Z,11.63
2019-01-25T02:45:40.926Z,9.80
2019-01-25T02:48:09.205Z,11.33
2019-01-25T02:50:37.516Z,9.83
2019-01-25T02:53:05.792Z,9.30
2019-01-25T02:55:34.091Z,8.90
2019-01-25T02:58:02.411Z,9.67
2019-01-25T03:00:30.686Z,8.23
2019-01-25T03:02:59.364Z,10.63
2019-01-25T03:05:27.701Z,11.37
2019-01-25T03:07:55.974Z,9.67
2019-01-25T03:10:29.030Z,10.03
2019-01-25T03:12:54.357Z,9.13
2019-01-25T03:15:25.054Z,10.87
2019-01-25T03:17:53.466Z,10.90
2019-01-25T03:20:21.776Z,10.53
2019-01-25T03:22:50.054Z,9.67
2019-01-25T03:25:23.849Z,10.63
2019-01-25T03:27:52.149Z,10.20
2019-01-25T03:30:21.879Z,10.97
2019-01-25T03:32:50.156Z,10.97
2019-01-25T03:35:20.295Z,10.60
2019-01-25T03:37:48.639Z,10.00
2019-01-25T03:40:19.052Z,10.10
2019-01-25T03:42:47.368Z,11.10
2019-01-25T03:45:15.975Z,9.63
2019-01-25T03:47:44.254Z,10.80
2019-01-25T03:50:15.821Z,9.03
2019-01-25T03:52:44.096Z,8.93
2019-01-25T03:55:13.707Z,9.77
2019-01-25T03:57:42.031Z,10.23
2019-01-25T04:00:16.186Z,9.60
2019-01-25T04:02:44.470Z,10.10
2019-01-25T04:05:14.725Z,9.90
2019-01-25T04:07:43.139Z,9.57
2019-01-25T04:10:17.162Z,8.93
2019-01-25T04:12:45.470Z,9.17
2019-01-25T04:15:22.024Z,9.47
2019-01-25T04:17:50.425Z,10.10
2019-01-25T04:20:20.559Z,11.30
2019-01-25T04:22:48.825Z,9.73
2019-01-25T04:25:18.879Z,12.57
2019-01-25T04:27:47.167Z,10.73
2019-01-25T04:30:21.069Z,9.17
2019-01-25T04:32:49.441Z,11.30
2019-01-25T04:35:17.728Z,10.93
2019-01-25T04:37:46.001Z,11.83
2019-01-25T04:40:18.252Z,13.00
2019-01-25T04:42:46.535Z,12.33
2019-01-25T04:45:17.319Z,11.37
2019-01-25T04:47:45.706Z,12.77
2019-01-25T04:50:15.924Z,11.67
2019-01-25T04:52:44.204Z,13.07
2019-01-25T04:55:23.852Z,11.43
2019-01-25T04:57:52.129Z,12.17
2019-01-25T05:00:22.453Z,11.47
2019-01-25T05:02:59.914Z,13.00
2019-01-25T05:05:28.626Z,10.53
2019-01-25T05:08:17.500Z,12.03
2019-01-25T05:10:45.770Z,12.73
2019-01-25T05:13:14.042Z,12.87
2019-01-25T05:15:42.358Z,12.63
2019-01-25T05:18:11.005Z,11.57
2019-01-25T05:20:39.279Z,11.63
2019-01-25T05:23:08.063Z,11.37
2019-01-25T05:25:36.327Z,9.97
2019-01-25T05:28:09.981Z,11.07
2019-01-25T05:30:38.286Z,15.20
2019-01-25T05:33:06.568Z,12.83
2019-01-25T05:35:36.181Z,12.90
2019-01-25T05:38:04.493Z,12.30
2019-01-25T05:40:32.769Z,12.83
2019-01-25T05:43:01.105Z,12.60
2019-01-25T05:45:29.420Z,10.00
2019-01-25T05:47:57.693Z,9.00
2019-01-25T05:50:26.238Z,7.67
2019-01-25T05:52:54.546Z,6.53
2019-01-25T05:55:23.094Z,7.83
2019-01-25T05:57:53.156Z,7.43
2019-01-25T06:00:32.165Z,5.27
2019-01-25T06:03:05.610Z,5.83
2019-01-25T06:05:33.889Z,3.93
2019-01-25T06:08:02.201Z,3.13
2019-01-25T06:10:32.629Z,2.97
2019-01-25T06:13:00.905Z,3.77
2019-01-25T06:15:29.469Z,4.20
2019-01-25T06:18:01.001Z,3.73
2019-01-25T06:20:29.265Z,3.40
2019-01-25T06:22:57.648Z,4.03
2019-01-25T06:25:25.979Z,3.40
2019-01-25T06:27:54.257Z,4.20
2019-01-25T06:30:22.609Z,3.80
2019-01-25T06:32:50.825Z,4.53
2019-01-25T06:35:19.099Z,4.37
2019-01-25T06:37:47.495Z,5.50
2019-01-25T06:40:15.941Z,3.87
2019-01-25T06:42:44.351Z,3.93
2019-01-25T06:45:12.731Z,3.10
2019-01-25T06:47:41.082Z,5.07
2019-01-25T06:50:11.658Z,5.17
2019-01-25T06:55:24.803Z,6.07
2019-01-25T06:57:54.700Z,5.30
2019-01-25T07:00:24.686Z,6.47
2019-01-25T07:02:53.084Z,6.93
2019-01-25T07:05:21.367Z,6.80
2019-01-25T07:07:49.789Z,5.73
2019-01-25T07:10:19.655Z,7.50
2019-01-25T07:12:47.930Z,7.60
2019-01-25T07:15:17.843Z,7.63
2019-01-25T07:17:46.226Z,7.57
2019-01-25T07:20:15.947Z,8.13
2019-01-25T07:22:44.233Z,6.73
2019-01-25T07:25:13.884Z,6.50
2019-01-25T07:27:42.151Z,6.00
2019-01-25T07:30:15.249Z,6.90
2019-01-25T07:32:43.570Z,26.60
2019-01-25T07:35:11.829Z,33.73
2019-01-25T07:37:40.117Z,13.13
2019-01-25T07:40:09.780Z,9.87
2019-01-25T07:42:38.086Z,14.57
2019-01-25T07:45:09.487Z,11.73
2019-01-25T07:47:37.817Z,18.40
2019-01-25T07:50:08.792Z,13.63
2019-01-25T07:52:37.129Z,16.87
2019-01-25T07:55:08.167Z,18.93
2019-01-25T07:57:36.418Z,9.60
2019-01-25T08:00:07.691Z,9.77
2019-01-25T08:02:36.017Z,12.57
2019-01-25T08:05:05.931Z,13.53
2019-01-25T08:07:34.213Z,13.13
2019-01-25T08:10:02.602Z,11.87
2019-01-25T08:12:30.868Z,5.83
2019-01-25T08:14:59.143Z,6.63
2019-01-25T08:17:27.508Z,5.83
2019-01-25T08:19:55.853Z,5.67
2019-01-25T08:22:24.206Z,6.13
2019-01-25T08:24:52.491Z,4.87
2019-01-25T08:27:20.784Z,4.60
2019-01-25T08:29:49.211Z,3.53
2019-01-25T08:32:17.523Z,3.90
2019-01-25T08:34:45.867Z,3.63
2019-01-25T08:37:14.173Z,4.00
2019-01-25T08:39:42.496Z,5.87
2019-01-25T08:42:15.493Z,4.17
2019-01-25T08:44:40.717Z,4.90
2019-01-25T08:47:09.020Z,4.10
2019-01-25T08:49:37.290Z,4.67
2019-01-25T08:52:05.582Z,3.90
2019-01-25T08:54:34.013Z,4.13
2019-01-25T08:57:02.419Z,3.40
2019-01-25T08:59:30.701Z,3.37
2019-01-25T09:01:59.018Z,4.80
2019-01-25T09:04:27.294Z,3.33
2019-01-25T09:06:55.567Z,2.47
2019-01-25T09:09:23.868Z,5.00
2019-01-25T09:11:52.147Z,3.93
2019-01-25T09:14:20.407Z,4.03
2019-01-25T09:16:48.719Z,5.20
2019-01-25T09:19:16.987Z,5.27
2019-01-25T09:21:45.261Z,5.77
2019-01-25T09:24:13.572Z,6.00
2019-01-25T09:26:41.860Z,7.37
2019-01-25T09:29:10.138Z,4.60
2019-01-25T09:31:38.451Z,5.33
2019-01-25T09:34:06.797Z,8.03
2019-01-25T09:36:35.070Z,6.70
2019-01-25T09:39:04.987Z,2.93
2019-01-25T09:41:33.257Z,3.37
2019-01-25T09:44:01.526Z,2.60
2019-01-25T09:46:30.232Z,5.00
2019-01-25T09:48:58.482Z,8.30
2019-01-25T09:51:26.761Z,10.17
2019-01-25T09:53:55.055Z,5.80
2019-01-25T09:56:23.331Z,4.10
2019-01-25T09:58:51.610Z,4.43
2019-01-25T10:01:19.922Z,8.13
2019-01-25T10:03:48.205Z,12.43
2019-01-25T10:06:16.619Z,5.60
2019-01-25T10:08:44.948Z,4.00
2019-01-25T10:11:13.226Z,9.70
2019-01-25T10:13:41.507Z,6.20
2019-01-25T10:16:09.811Z,8.43
2019-01-25T10:18:38.088Z,6.07
2019-01-25T10:21:06.370Z,7.07
2019-01-25T10:23:39.082Z,8.87
2019-01-25T10:26:04.748Z,7.97
2019-01-25T10:28:33.025Z,4.07
2019-01-25T10:31:01.333Z,5.50
2019-01-25T10:33:29.606Z,5.37
2019-01-25T10:35:58.121Z,4.40
2019-01-25T10:38:26.508Z,2.47
2019-01-25T10:40:54.778Z,1.80
2019-01-25T10:43:23.051Z,6.57
2019-01-25T10:45:51.366Z,8.73
2019-01-25T10:48:19.704Z,4.43
2019-01-25T10:50:47.967Z,2.60
2019-01-25T10:53:16.480Z,8.70
2019-01-25T10:55:44.959Z,4.10
2019-01-25T10:58:13.301Z,5.47
2019-01-25T11:00:41.751Z,6.80
2019-01-25T11:03:10.154Z,2.83
2019-01-25T11:05:38.433Z,4.17
2019-01-25T11:08:06.807Z,3.33
2019-01-25T11:10:35.293Z,3.50
2019-01-25T11:13:03.774Z,3.33
2019-01-25T11:15:32.144Z,6.00
2019-01-25T11:18:00.621Z,4.87
2019-01-25T11:20:29.122Z,5.50
2019-01-25T11:22:57.631Z,6.63
2019-01-25T11:25:34.110Z,8.50
2019-01-25T11:28:02.634Z,5.47
2019-01-25T11:30:30.977Z,5.70
2019-01-25T11:32:59.404Z,2.67
2019-01-25T11:35:27.929Z,2.63
2019-01-25T11:37:56.208Z,2.20
2019-01-25T11:40:27.447Z,3.33
2019-01-25T11:42:55.952Z,2.57
2019-01-25T11:45:24.222Z,3.10
2019-01-25T11:47:52.579Z,3.90
2019-01-25T11:50:21.689Z,3.63
2019-01-25T11:52:50.028Z,3.83
2019-01-25T11:55:19.119Z,4.17
2019-01-25T11:57:47.793Z,3.87
2019-01-25T12:03:56.995Z,3.70
2019-01-25T12:06:25.339Z,3.90
2019-01-25T12:08:53.832Z,3.70
2019-01-25T12:11:22.297Z,4.57
2019-01-25T12:13:50.777Z,5.10
2019-01-25T12:16:19.047Z,5.13
2019-01-25T12:18:48.217Z,5.40
2019-01-25T12:21:16.693Z,5.43
2019-01-25T12:23:44.979Z,6.20
2019-01-25T12:26:13.545Z,7.07
2019-01-25T12:28:41.958Z,6.30
2019-01-25T12:31:10.395Z,6.07
2019-01-25T12:33:38.912Z,5.00
2019-01-25T12:36:07.189Z,4.77
2019-01-25T12:38:35.673Z,4.67
2019-01-25T12:41:03.974Z,3.40
2019-01-25T12:43:32.451Z,5.20
2019-01-25T12:46:00.942Z,8.00
2019-01-25T12:48:29.271Z,8.50
2019-01-25T12:51:01.123Z,11.33
2019-01-25T12:53:29.807Z,10.10
2019-01-25T12:55:59.897Z,10.43
2019-01-25T12:58:28.383Z,6.83
2019-01-25T13:00:58.435Z,5.03
2019-01-25T13:03:26.949Z,4.90
2019-01-25T13:05:55.466Z,5.27
2019-01-25T13:08:23.960Z,4.07
2019-01-25T13:10:52.477Z,3.00
2019-01-25T13:13:20.950Z,3.30
2019-01-25T13:15:49.433Z,2.90
2019-01-25T13:18:17.942Z,2.70
2019-01-25T13:20:46.433Z,2.20
2019-01-25T13:23:14.918Z,2.67
2019-01-25T13:25:47.265Z,2.70
2019-01-25T13:28:13.628Z,2.80
2019-01-25T13:30:42.112Z,2.67
2019-01-25T13:33:10.646Z,3.43
2019-01-25T13:35:39.109Z,3.80
2019-01-25T13:38:07.592Z,3.13
2019-01-25T13:40:36.126Z,2.87
2019-01-25T13:43:04.602Z,6.03
2019-01-25T13:45:33.080Z,4.20
2019-01-25T13:48:01.595Z,5.33
2019-01-25T13:50:30.580Z,7.23
2019-01-25T13:52:59.064Z,5.77
2019-01-25T13:55:27.595Z,6.63
2019-01-25T13:57:56.067Z,9.80
2019-01-25T14:00:26.684Z,8.43
2019-01-25T14:02:55.237Z,5.33
2019-01-25T14:05:23.725Z,6.03
2019-01-25T14:07:52.210Z,8.43
2019-01-25T14:10:23.186Z,5.87
2019-01-25T14:12:51.668Z,5.80
2019-01-25T14:15:20.148Z,4.83
2019-01-25T14:17:48.667Z,5.47
2019-01-25T14:20:23.725Z,4.67
2019-01-25T14:22:53.195Z,4.27
2019-01-25T14:25:21.689Z,3.57
2019-01-25T14:27:50.171Z,3.60
2019-01-25T14:30:21.946Z,3.90
2019-01-25T14:32:50.438Z,3.73
2019-01-25T14:35:18.928Z,5.40
2019-01-25T14:37:47.457Z,13.37
2019-01-25T14:40:15.958Z,16.17
2019-01-25T14:42:44.435Z,7.50
2019-01-25T14:45:15.360Z,6.07
2019-01-25T14:47:43.860Z,10.13
2019-01-25T14:50:18.562Z,5.20
2019-01-25T14:52:49.781Z,4.90
2019-01-25T14:55:18.275Z,8.97
2019-01-25T14:57:46.765Z,13.07
2019-01-25T15:00:15.700Z,12.60
2019-01-25T15:02:44.208Z,14.57
2019-01-25T15:05:17.613Z,16.33
2019-01-25T15:07:46.149Z,14.90
2019-01-25T15:10:17.301Z,11.57
2019-01-25T15:12:45.984Z,14.47
2019-01-25T15:15:15.108Z,11.97
2019-01-25T15:17:43.609Z,10.87
2019-01-25T15:20:17.924Z,9.80
2019-01-25T15:22:46.492Z,13.73
2019-01-25T15:25:15.590Z,12.93
2019-01-25T15:27:44.089Z,16.10
2019-01-25T15:30:23.745Z,9.23
2019-01-25T15:32:52.232Z,10.83
2019-01-25T15:35:21.627Z,7.40
2019-01-25T15:37:50.149Z,5.90
2019-01-25T15:40:20.134Z,6.80
2019-01-25T15:42:48.637Z,8.73
2019-01-25T15:45:21.553Z,6.30
2019-01-25T15:47:50.056Z,23.60
2019-01-25T15:50:21.214Z,8.80
2019-01-25T15:52:49.726Z,5.97
2019-01-25T15:55:21.536Z,10.00
2019-01-25T15:57:50.028Z,6.37
2019-01-25T16:00:24.136Z,3.87
2019-01-25T16:02:52.626Z,4.63
2019-01-25T16:05:21.737Z,5.00
2019-01-25T16:07:50.271Z,5.27
2019-01-25T16:10:20.571Z,5.83
2019-01-25T16:12:49.147Z,4.90
2019-01-25T16:15:20.132Z,3.37
2019-01-25T16:17:48.630Z,5.97
2019-01-25T16:20:18.417Z,8.67
2019-01-25T16:22:47.747Z,10.03
2019-01-25T16:25:24.390Z,6.83
2019-01-25T16:27:52.932Z,7.67
2019-01-25T16:30:27.406Z,4.47
2019-01-25T16:32:55.887Z,5.40
2019-01-25T16:35:24.427Z,4.73
2019-01-25T16:37:52.920Z,5.10
2019-01-25T16:40:24.161Z,4.80
2019-01-25T16:42:52.672Z,5.00
2019-01-25T16:45:33.053Z,6.80
2019-01-25T16:48:01.609Z,5.37
2019-01-25T16:50:30.096Z,7.40
2019-01-25T16:52:58.573Z,6.10
2019-01-25T16:55:27.114Z,9.40
2019-01-25T16:57:55.603Z,6.63
2019-01-25T17:00:26.568Z,6.03
2019-01-25T17:02:55.073Z,3.67
2019-01-25T17:05:23.567Z,4.17
2019-01-25T17:07:55.047Z,5.83
2019-01-25T17:10:23.574Z,4.40
2019-01-25T17:12:52.070Z,5.17
2019-01-25T17:15:20.543Z,5.47
2019-01-25T17:17:49.080Z,4.97
2019-01-25T17:20:28.605Z,7.10
2019-01-25T17:22:57.144Z,5.30
2019-01-25T17:25:30.102Z,5.83
2019-01-25T17:28:00.111Z,6.03
2019-01-25T17:30:38.035Z,6.87
2019-01-25T17:33:06.825Z,5.10
2019-01-25T17:35:38.469Z,6.93
2019-01-25T17:38:07.033Z,6.53
2019-01-25T17:40:46.114Z,5.47
2019-01-25T17:43:08.851Z,4.10
2019-01-25T17:45:37.393Z,6.80
2019-01-25T17:48:06.480Z,7.53
2019-01-25T17:50:34.972Z,6.67
2019-01-25T17:53:03.498Z,5.13
2019-01-25T17:55:31.998Z,4.80
2019-01-25T17:58:07.694Z,4.67
2019-01-25T18:00:33.593Z,4.37
2019-01-25T18:03:02.085Z,4.70
2019-01-25T18:05:30.575Z,6.47
2019-01-25T18:07:59.114Z,6.77
2019-01-25T18:10:27.588Z,5.53
2019-01-25T18:12:56.086Z,5.43
2019-01-25T18:15:24.615Z,3.77
2019-01-25T18:17:53.106Z,5.63
2019-01-25T18:20:25.137Z,4.80
2019-01-25T18:22:53.956Z,5.83
2019-01-25T18:25:31.378Z,4.23
2019-01-25T18:28:02.611Z,6.27
2019-01-25T18:30:40.376Z,4.27
2019-01-25T18:33:08.910Z,5.73
2019-01-25T18:35:37.398Z,12.23
2019-01-25T18:38:06.074Z,6.03
2019-01-25T18:40:34.606Z,6.27
2019-01-25T18:43:03.098Z,9.63
2019-01-25T18:45:31.583Z,5.10
2019-01-25T18:48:00.119Z,6.50
2019-01-25T18:50:28.600Z,8.37
2019-01-25T18:52:57.101Z,13.03
2019-01-25T18:55:26.231Z,10.20
2019-01-25T18:57:54.729Z,9.40
2019-01-25T19:00:23.230Z,11.13
2019-01-25T19:02:51.768Z,7.00
2019-01-25T19:05:20.249Z,11.50
2019-01-25T19:07:48.745Z,10.73
2019-01-25T19:10:19.871Z,7.90
2019-01-25T19:12:48.361Z,12.37
2019-01-25T19:15:19.546Z,9.60
2019-01-25T19:17:50.819Z,10.23
2019-01-25T19:20:19.319Z,8.13
2019-01-25T19:22:47.801Z,7.80
2019-01-25T19:25:16.334Z,6.50
2019-01-25T19:27:44.829Z,3.10
2019-01-25T19:30:16.422Z,4.43
2019-01-25T19:32:44.945Z,5.80
2019-01-25T19:35:14.132Z,5.67
2019-01-25T19:37:42.607Z,6.07
2019-01-25T19:40:16.680Z,4.97
2019-01-25T19:42:45.176Z,6.07
2019-01-25T19:45:13.662Z,4.97
2019-01-25T19:47:44.939Z,4.17
2019-01-25T19:50:18.793Z,5.17
2019-01-25T19:52:47.277Z,7.17
2019-01-25T19:55:24.476Z,7.33
2019-01-25T19:57:52.969Z,6.40
2019-01-25T20:00:29.969Z,6.23
2019-01-25T20:02:58.473Z,5.00
2019-01-25T20:05:29.048Z,4.30
2019-01-25T20:07:57.639Z,11.67
2019-01-25T20:10:28.849Z,6.30
2019-01-25T20:12:57.457Z,8.40
2019-01-25T20:15:26.972Z,6.00
2019-01-25T20:17:55.456Z,7.37
2019-01-25T20:20:26.529Z,4.97
2019-01-25T20:22:55.057Z,4.43
2019-01-25T20:25:23.548Z,4.67
2019-01-25T20:27:52.044Z,4.33
2019-01-25T20:30:22.860Z,3.60
2019-01-25T20:32:52.918Z,2.77
2019-01-25T20:35:24.159Z,2.60
2019-01-25T20:37:52.691Z,3.47
2019-01-25T20:40:21.177Z,23.13
2019-01-25T20:42:49.663Z,23.80
2019-01-25T20:45:27.168Z,15.57
2019-01-25T20:47:53.355Z,5.57
2019-01-25T20:50:24.345Z,19.37
2019-01-25T20:52:55.827Z,8.00
2019-01-25T20:55:24.610Z,6.40
2019-01-25T20:57:53.202Z,9.03
2019-01-25T21:00:30.276Z,14.57
2019-01-25T21:02:58.742Z,3.80
2019-01-25T21:05:30.248Z,4.03
2019-01-25T21:08:00.348Z,3.50
2019-01-25T21:10:28.826Z,5.47
2019-01-25T21:12:57.297Z,4.63
2019-01-25T21:15:34.827Z,3.53
2019-01-25T21:17:57.605Z,5.23
2019-01-25T21:20:31.758Z,14.43
2019-01-25T21:23:00.237Z,5.97
2019-01-25T21:25:28.712Z,5.63
2019-01-25T21:27:57.235Z,6.67
2019-01-25T21:30:27.929Z,2.97
2019-01-25T21:32:57.294Z,3.17
2019-01-25T21:35:25.813Z,3.07
2019-01-25T21:37:54.286Z,2.87
2019-01-25T21:40:25.427Z,1.97
2019-01-25T21:42:53.963Z,3.27
2019-01-25T21:45:24.821Z,2.83
2019-01-25T21:47:53.394Z,3.37
2019-01-25T21:50:24.401Z,3.10
2019-01-25T21:52:52.887Z,2.63
2019-01-25T21:55:21.369Z,2.97
2019-01-25T21:57:49.985Z,3.07
2019-01-25T22:00:23.483Z,3.77
2019-01-25T22:02:51.958Z,4.50
2019-01-25T22:05:20.678Z,2.60
2019-01-25T22:07:49.165Z,2.93
2019-01-25T22:10:20.250Z,1.40
2019-01-25T22:12:48.771Z,2.23
2019-01-25T22:15:18.815Z,2.70
2019-01-25T22:17:47.226Z,3.67
2019-01-25T22:20:26.777Z,2.83
2019-01-25T22:22:55.264Z,2.43
2019-01-25T22:25:23.846Z,2.00
2019-01-25T22:27:53.396Z,1.60
2019-01-25T22:30:27.416Z,3.30
2019-01-25T22:32:55.893Z,2.73
2019-01-25T22:35:24.284Z,2.07
2019-01-25T22:37:53.285Z,1.80
2019-01-25T22:40:29.379Z,1.73
2019-01-25T22:42:57.860Z,2.53
2019-01-25T22:45:30.140Z,1.77
2019-01-25T22:47:59.581Z,1.47
2019-01-25T22:50:29.991Z,1.57
2019-01-25T22:52:58.462Z,2.83
2019-01-25T22:55:26.971Z,1.20
2019-01-25T22:57:55.244Z,1.37
2019-01-25T23:00:54.875Z,1.85
2019-01-25T23:03:32.212Z,1.52
2019-01-25T23:06:29.323Z,1.50
2019-01-25T23:09:01.112Z,2.50
2019-01-25T23:11:29.461Z,1.50
2019-01-25T23:13:57.761Z,1.67
2019-01-25T23:16:26.037Z,2.55
2019-01-25T23:18:54.320Z,2.58
2019-01-25T23:21:22.711Z,1.72
2019-01-25T23:23:50.982Z,5.10
2019-01-25T23:26:19.260Z,3.12
2019-01-25T23:28:47.581Z,1.77
2019-01-25T23:31:15.945Z,1.80
2019-01-25T23:33:44.286Z,2.25
2019-01-25T23:36:12.621Z,1.50
2019-01-25T23:38:40.903Z,2.45
2019-01-25T23:41:09.262Z,2.98
2019-01-25T23:43:37.579Z,1.85
2019-01-25T23:46:05.848Z,2.20
2019-01-25T23:48:34.138Z,2.22
2019-01-25T23:51:02.513Z,1.40
2019-01-25T23:53:30.860Z,1.30
2019-01-25T23:55:59.143Z,6.95
2019-01-25T23:58:27.458Z,1.70
